sensor_id;sensor_type;location;lat;lon;timestamp;temperature;humidity
29243;DHT22;21110;48.036;15.780;2023-04-06T00:01:35;20.90;37.70
29243;DHT22;21110;48.036;15.780;2023-04-06T00:04:01;20.90;37.40
29243;DHT22;21110;48.036;15.780;2023-04-06T00:06:27;21.00;37.50
29243;DHT22;21110;48.036;15.780;2023-04-06T00:08:53;20.90;37.60
29243;DHT22;21110;48.036;15.780;2023-04-06T00:11:18;20.90;37.60
29243;DHT22;21110;48.036;15.780;2023-04-06T00:13:45;20.90;37.40
29243;DHT22;21110;48.036;15.780;2023-04-06T00:16:10;20.90;37.40
29243;DHT22;21110;48.036;15.780;2023-04-06T00:18:36;20.80;37.50
29243;DHT22;21110;48.036;15.780;2023-04-06T00:21:03;20.90;37.60
29243;DHT22;21110;48.036;15.780;2023-04-06T00:23:28;20.90;37.60
29243;DHT22;21110;48.036;15.780;2023-04-06T00:25:54;20.90;37.60
29243;DHT22;21110;48.036;15.780;2023-04-06T00:28:20;20.80;37.50
29243;DHT22;21110;48.036;15.780;2023-04-06T00:30:51;20.90;37.40
29243;DHT22;21110;48.036;15.780;2023-04-06T00:33:18;20.80;37.50
29243;DHT22;21110;48.036;15.780;2023-04-06T00:35:44;20.90;37.40
29243;DHT22;21110;48.036;15.780;2023-04-06T00:38:11;20.90;37.50
29243;DHT22;21110;48.036;15.780;2023-04-06T00:40:36;20.90;37.50
29243;DHT22;21110;48.036;15.780;2023-04-06T00:43:02;20.80;37.50
29243;DHT22;21110;48.036;15.780;2023-04-06T00:45:28;20.90;37.70
29243;DHT22;21110;48.036;15.780;2023-04-06T00:47:54;20.90;37.60
29243;DHT22;21110;48.036;15.780;2023-04-06T00:50:19;20.90;37.70
29243;DHT22;21110;48.036;15.780;2023-04-06T00:52:45;21.00;37.70
29243;DHT22;21110;48.036;15.780;2023-04-06T00:55:11;20.90;37.60
29243;DHT22;21110;48.036;15.780;2023-04-06T00:57:36;20.90;37.60
29243;DHT22;21110;48.036;15.780;2023-04-06T01:00:03;20.90;37.60
29243;DHT22;21110;48.036;15.780;2023-04-06T01:02:29;20.90;37.60
29243;DHT22;21110;48.036;15.780;2023-04-06T01:04:55;20.90;37.60
29243;DHT22;21110;48.036;15.780;2023-04-06T01:07:20;20.80;37.60
29243;DHT22;21110;48.036;15.780;2023-04-06T01:09:46;20.80;37.50
29243;DHT22;21110;48.036;15.780;2023-04-06T01:12:12;20.80;37.60
29243;DHT22;21110;48.036;15.780;2023-04-06T01:14:37;20.80;37.90
29243;DHT22;21110;48.036;15.780;2023-04-06T01:17:03;20.80;37.80
29243;DHT22;21110;48.036;15.780;2023-04-06T01:19:29;20.80;37.80
29243;DHT22;21110;48.036;15.780;2023-04-06T01:21:55;20.80;37.80
29243;DHT22;21110;48.036;15.780;2023-04-06T01:24:21;20.70;37.90
29243;DHT22;21110;48.036;15.780;2023-04-06T01:26:47;20.70;37.80
29243;DHT22;21110;48.036;15.780;2023-04-06T01:29:12;20.60;38.00
29243;DHT22;21110;48.036;15.780;2023-04-06T01:31:39;20.60;38.00
29243;DHT22;21110;48.036;15.780;2023-04-06T01:34:05;20.60;37.80
29243;DHT22;21110;48.036;15.780;2023-04-06T01:36:30;20.60;37.90
29243;DHT22;21110;48.036;15.780;2023-04-06T01:38:56;20.60;38.10
29243;DHT22;21110;48.036;15.780;2023-04-06T01:41:22;20.60;38.00
29243;DHT22;21110;48.036;15.780;2023-04-06T01:43:48;20.60;38.20
29243;DHT22;21110;48.036;15.780;2023-04-06T01:46:15;20.50;38.00
29243;DHT22;21110;48.036;15.780;2023-04-06T01:48:41;20.60;38.30
29243;DHT22;21110;48.036;15.780;2023-04-06T01:51:07;20.50;38.60
29243;DHT22;21110;48.036;15.780;2023-04-06T01:53:32;20.60;38.20
29243;DHT22;21110;48.036;15.780;2023-04-06T01:55:58;20.60;38.20
29243;DHT22;21110;48.036;15.780;2023-04-06T01:58:24;20.50;38.30
29243;DHT22;21110;48.036;15.780;2023-04-06T02:00:49;20.50;38.40
29243;DHT22;21110;48.036;15.780;2023-04-06T02:03:15;20.50;38.40
29243;DHT22;21110;48.036;15.780;2023-04-06T02:05:41;20.50;38.30
29243;DHT22;21110;48.036;15.780;2023-04-06T02:08:07;20.50;38.50
29243;DHT22;21110;48.036;15.780;2023-04-06T02:10:33;20.40;38.40
29243;DHT22;21110;48.036;15.780;2023-04-06T02:12:59;20.50;38.40
29243;DHT22;21110;48.036;15.780;2023-04-06T02:15:26;20.40;38.40
29243;DHT22;21110;48.036;15.780;2023-04-06T02:17:52;20.40;38.40
29243;DHT22;21110;48.036;15.780;2023-04-06T02:20:18;20.40;38.40
29243;DHT22;21110;48.036;15.780;2023-04-06T02:22:43;20.40;38.50
29243;DHT22;21110;48.036;15.780;2023-04-06T02:25:09;20.40;38.40
29243;DHT22;21110;48.036;15.780;2023-04-06T02:27:35;20.40;38.40
29243;DHT22;21110;48.036;15.780;2023-04-06T02:30:04;20.40;38.50
29243;DHT22;21110;48.036;15.780;2023-04-06T02:32:30;20.40;38.40
29243;DHT22;21110;48.036;15.780;2023-04-06T02:34:56;20.40;38.50
29243;DHT22;21110;48.036;15.780;2023-04-06T02:37:21;20.40;38.50
29243;DHT22;21110;48.036;15.780;2023-04-06T02:39:49;20.40;38.60
29243;DHT22;21110;48.036;15.780;2023-04-06T02:42:15;20.40;38.70
29243;DHT22;21110;48.036;15.780;2023-04-06T02:44:41;20.40;38.60
29243;DHT22;21110;48.036;15.780;2023-04-06T02:47:07;20.30;38.70
29243;DHT22;21110;48.036;15.780;2023-04-06T02:49:33;20.30;38.50
29243;DHT22;21110;48.036;15.780;2023-04-06T02:51:59;20.30;38.60
29243;DHT22;21110;48.036;15.780;2023-04-06T02:54:25;20.30;38.60
29243;DHT22;21110;48.036;15.780;2023-04-06T02:56:51;20.30;38.70
29243;DHT22;21110;48.036;15.780;2023-04-06T02:59:16;20.30;38.60
29243;DHT22;21110;48.036;15.780;2023-04-06T03:01:42;20.30;38.80
29243;DHT22;21110;48.036;15.780;2023-04-06T03:04:08;20.30;38.60
29243;DHT22;21110;48.036;15.780;2023-04-06T03:06:33;20.20;38.60
29243;DHT22;21110;48.036;15.780;2023-04-06T03:08:59;20.20;38.60
29243;DHT22;21110;48.036;15.780;2023-04-06T03:11:25;20.20;38.60
29243;DHT22;21110;48.036;15.780;2023-04-06T03:13:52;20.20;38.60
29243;DHT22;21110;48.036;15.780;2023-04-06T03:16:17;20.20;38.70
29243;DHT22;21110;48.036;15.780;2023-04-06T03:18:43;20.20;38.70
29243;DHT22;21110;48.036;15.780;2023-04-06T03:21:10;20.20;39.00
29243;DHT22;21110;48.036;15.780;2023-04-06T03:23:36;20.20;38.80
29243;DHT22;21110;48.036;15.780;2023-04-06T03:26:02;20.20;39.40
29243;DHT22;21110;48.036;15.780;2023-04-06T03:28:28;20.20;38.90
29243;DHT22;21110;48.036;15.780;2023-04-06T03:30:53;20.20;38.90
29243;DHT22;21110;48.036;15.780;2023-04-06T03:33:19;20.20;39.20
29243;DHT22;21110;48.036;15.780;2023-04-06T03:35:45;20.10;39.20
29243;DHT22;21110;48.036;15.780;2023-04-06T03:38:11;20.10;39.20
29243;DHT22;21110;48.036;15.780;2023-04-06T03:40:36;20.10;39.30
29243;DHT22;21110;48.036;15.780;2023-04-06T03:43:04;20.10;39.40
29243;DHT22;21110;48.036;15.780;2023-04-06T03:45:29;20.10;39.30
29243;DHT22;21110;48.036;15.780;2023-04-06T03:47:55;20.00;39.40
29243;DHT22;21110;48.036;15.780;2023-04-06T03:50:21;20.00;39.40
29243;DHT22;21110;48.036;15.780;2023-04-06T03:52:46;20.00;39.50
29243;DHT22;21110;48.036;15.780;2023-04-06T03:55:12;19.90;39.50
29243;DHT22;21110;48.036;15.780;2023-04-06T03:57:38;19.90;39.50
29243;DHT22;21110;48.036;15.780;2023-04-06T04:00:04;19.90;39.50
29243;DHT22;21110;48.036;15.780;2023-04-06T04:02:30;19.90;39.50
29243;DHT22;21110;48.036;15.780;2023-04-06T04:04:55;19.90;39.60
29243;DHT22;21110;48.036;15.780;2023-04-06T04:07:21;19.90;39.50
29243;DHT22;21110;48.036;15.780;2023-04-06T04:09:47;19.80;39.60
29243;DHT22;21110;48.036;15.780;2023-04-06T04:12:12;19.80;39.60
29243;DHT22;21110;48.036;15.780;2023-04-06T04:14:40;19.80;39.70
29243;DHT22;21110;48.036;15.780;2023-04-06T04:17:05;19.80;39.90
29243;DHT22;21110;48.036;15.780;2023-04-06T04:19:31;19.80;39.80
29243;DHT22;21110;48.036;15.780;2023-04-06T04:21:56;19.80;39.80
29243;DHT22;21110;48.036;15.780;2023-04-06T04:24:22;19.80;39.70
29243;DHT22;21110;48.036;15.780;2023-04-06T04:26:48;19.80;39.70
29243;DHT22;21110;48.036;15.780;2023-04-06T04:29:13;19.80;39.70
29243;DHT22;21110;48.036;15.780;2023-04-06T04:31:39;19.80;39.80
29243;DHT22;21110;48.036;15.780;2023-04-06T04:34:05;19.80;39.70
29243;DHT22;21110;48.036;15.780;2023-04-06T04:36:32;19.80;39.80
29243;DHT22;21110;48.036;15.780;2023-04-06T04:38:58;19.80;39.90
29243;DHT22;21110;48.036;15.780;2023-04-06T04:41:24;19.80;39.90
29243;DHT22;21110;48.036;15.780;2023-04-06T04:43:49;19.70;39.80
29243;DHT22;21110;48.036;15.780;2023-04-06T04:46:15;19.70;39.90
29243;DHT22;21110;48.036;15.780;2023-04-06T04:48:41;19.70;39.90
29243;DHT22;21110;48.036;15.780;2023-04-06T04:51:06;19.70;40.00
29243;DHT22;21110;48.036;15.780;2023-04-06T04:53:32;19.70;40.00
29243;DHT22;21110;48.036;15.780;2023-04-06T04:55:58;19.70;40.00
29243;DHT22;21110;48.036;15.780;2023-04-06T04:58:23;19.70;40.20
29243;DHT22;21110;48.036;15.780;2023-04-06T05:00:49;19.70;40.20
29243;DHT22;21110;48.036;15.780;2023-04-06T05:03:25;19.70;40.20
29243;DHT22;21110;48.036;15.780;2023-04-06T05:05:51;19.70;40.10
29243;DHT22;21110;48.036;15.780;2023-04-06T05:08:17;19.60;40.10
29243;DHT22;21110;48.036;15.780;2023-04-06T05:10:43;19.60;40.10
29243;DHT22;21110;48.036;15.780;2023-04-06T05:13:10;19.60;40.10
29243;DHT22;21110;48.036;15.780;2023-04-06T05:15:36;19.60;40.30
29243;DHT22;21110;48.036;15.780;2023-04-06T05:18:04;19.60;40.20
29243;DHT22;21110;48.036;15.780;2023-04-06T05:20:30;19.60;40.30
29243;DHT22;21110;48.036;15.780;2023-04-06T05:22:56;19.60;40.30
29243;DHT22;21110;48.036;15.780;2023-04-06T05:25:22;19.50;40.20
29243;DHT22;21110;48.036;15.780;2023-04-06T05:27:47;19.50;40.20
29243;DHT22;21110;48.036;15.780;2023-04-06T05:30:13;19.50;40.30
29243;DHT22;21110;48.036;15.780;2023-04-06T05:32:40;19.50;40.30
29243;DHT22;21110;48.036;15.780;2023-04-06T05:35:06;19.50;40.30
29243;DHT22;21110;48.036;15.780;2023-04-06T05:37:31;19.40;40.30
29243;DHT22;21110;48.036;15.780;2023-04-06T05:39:57;19.40;40.30
29243;DHT22;21110;48.036;15.780;2023-04-06T05:42:23;19.40;40.30
29243;DHT22;21110;48.036;15.780;2023-04-06T05:44:48;19.40;40.30
29243;DHT22;21110;48.036;15.780;2023-04-06T05:47:14;19.40;40.10
29243;DHT22;21110;48.036;15.780;2023-04-06T05:49:42;19.50;40.40
29243;DHT22;21110;48.036;15.780;2023-04-06T05:52:08;19.50;40.40
29243;DHT22;21110;48.036;15.780;2023-04-06T05:54:35;19.50;40.30
29243;DHT22;21110;48.036;15.780;2023-04-06T05:57:02;19.50;40.50
29243;DHT22;21110;48.036;15.780;2023-04-06T05:59:30;19.50;40.60
29243;DHT22;21110;48.036;15.780;2023-04-06T06:01:55;19.40;40.50
29243;DHT22;21110;48.036;15.780;2023-04-06T06:04:21;19.50;41.10
29243;DHT22;21110;48.036;15.780;2023-04-06T06:06:47;19.40;40.50
29243;DHT22;21110;48.036;15.780;2023-04-06T06:09:12;19.40;40.50
29243;DHT22;21110;48.036;15.780;2023-04-06T06:11:38;19.40;40.50
29243;DHT22;21110;48.036;15.780;2023-04-06T06:14:04;19.40;40.70
29243;DHT22;21110;48.036;15.780;2023-04-06T06:16:29;19.40;40.70
29243;DHT22;21110;48.036;15.780;2023-04-06T06:18:55;19.40;40.80
29243;DHT22;21110;48.036;15.780;2023-04-06T06:21:21;19.40;40.70
29243;DHT22;21110;48.036;15.780;2023-04-06T06:23:47;19.40;40.80
29243;DHT22;21110;48.036;15.780;2023-04-06T06:26:14;19.50;40.90
29243;DHT22;21110;48.036;15.780;2023-04-06T06:28:40;19.30;39.20
29243;DHT22;21110;48.036;15.780;2023-04-06T06:31:06;19.20;39.50
29243;DHT22;21110;48.036;15.780;2023-04-06T06:33:32;19.10;39.50
29243;DHT22;21110;48.036;15.780;2023-04-06T06:35:58;19.00;39.20
29243;DHT22;21110;48.036;15.780;2023-04-06T06:38:24;18.90;39.10
29243;DHT22;21110;48.036;15.780;2023-04-06T06:40:50;18.90;39.00
29243;DHT22;21110;48.036;15.780;2023-04-06T06:43:15;18.90;39.00
29243;DHT22;21110;48.036;15.780;2023-04-06T06:45:42;18.90;39.00
29243;DHT22;21110;48.036;15.780;2023-04-06T06:48:09;18.90;39.00
29243;DHT22;21110;48.036;15.780;2023-04-06T06:50:34;18.90;39.00
29243;DHT22;21110;48.036;15.780;2023-04-06T06:53:00;18.80;38.60
29243;DHT22;21110;48.036;15.780;2023-04-06T06:55:26;18.70;38.90
29243;DHT22;21110;48.036;15.780;2023-04-06T06:57:52;18.70;39.00
29243;DHT22;21110;48.036;15.780;2023-04-06T07:00:18;18.80;39.10
29243;DHT22;21110;48.036;15.780;2023-04-06T07:02:47;18.80;39.30
29243;DHT22;21110;48.036;15.780;2023-04-06T07:05:13;18.80;39.40
29243;DHT22;21110;48.036;15.780;2023-04-06T07:07:39;18.70;39.60
29243;DHT22;21110;48.036;15.780;2023-04-06T07:10:05;18.60;39.80
29243;DHT22;21110;48.036;15.780;2023-04-06T07:12:31;18.70;40.40
29243;DHT22;21110;48.036;15.780;2023-04-06T07:14:56;18.70;40.20
29243;DHT22;21110;48.036;15.780;2023-04-06T07:17:22;18.60;40.60
29243;DHT22;21110;48.036;15.780;2023-04-06T07:19:48;18.50;40.80
29243;DHT22;21110;48.036;15.780;2023-04-06T07:22:13;18.50;41.40
29243;DHT22;21110;48.036;15.780;2023-04-06T07:24:39;18.40;40.80
29243;DHT22;21110;48.036;15.780;2023-04-06T07:27:05;18.40;40.70
29243;DHT22;21110;48.036;15.780;2023-04-06T07:29:31;18.50;40.80
29243;DHT22;21110;48.036;15.780;2023-04-06T07:31:57;18.40;40.80
29243;DHT22;21110;48.036;15.780;2023-04-06T07:34:22;18.30;40.80
29243;DHT22;21110;48.036;15.780;2023-04-06T07:36:48;18.30;40.80
29243;DHT22;21110;48.036;15.780;2023-04-06T07:39:14;18.30;40.70
29243;DHT22;21110;48.036;15.780;2023-04-06T07:41:40;18.50;40.50
29243;DHT22;21110;48.036;15.780;2023-04-06T07:44:05;18.50;40.50
29243;DHT22;21110;48.036;15.780;2023-04-06T07:46:31;18.60;40.60
29243;DHT22;21110;48.036;15.780;2023-04-06T07:48:59;18.60;40.70
29243;DHT22;21110;48.036;15.780;2023-04-06T07:51:25;18.60;40.70
29243;DHT22;21110;48.036;15.780;2023-04-06T07:53:51;18.60;40.70
29243;DHT22;21110;48.036;15.780;2023-04-06T07:56:17;18.60;40.70
29243;DHT22;21110;48.036;15.780;2023-04-06T07:58:43;18.60;40.60
29243;DHT22;21110;48.036;15.780;2023-04-06T08:01:09;18.60;40.60
29243;DHT22;21110;48.036;15.780;2023-04-06T08:03:35;18.60;40.70
29243;DHT22;21110;48.036;15.780;2023-04-06T08:06:01;18.60;40.70
29243;DHT22;21110;48.036;15.780;2023-04-06T08:08:28;18.60;40.70
29243;DHT22;21110;48.036;15.780;2023-04-06T08:10:54;18.60;40.70
29243;DHT22;21110;48.036;15.780;2023-04-06T08:13:20;18.60;40.70
29243;DHT22;21110;48.036;15.780;2023-04-06T08:15:46;18.70;41.40
29243;DHT22;21110;48.036;15.780;2023-04-06T08:18:12;18.60;40.80
29243;DHT22;21110;48.036;15.780;2023-04-06T08:20:39;18.50;40.80
29243;DHT22;21110;48.036;15.780;2023-04-06T08:23:05;18.40;40.90
29243;DHT22;21110;48.036;15.780;2023-04-06T08:25:33;18.30;40.90
29243;DHT22;21110;48.036;15.780;2023-04-06T08:27:59;18.30;40.90
29243;DHT22;21110;48.036;15.780;2023-04-06T08:30:24;18.20;40.80
29243;DHT22;21110;48.036;15.780;2023-04-06T08:32:50;18.30;40.90
29243;DHT22;21110;48.036;15.780;2023-04-06T08:35:16;18.30;40.90
29243;DHT22;21110;48.036;15.780;2023-04-06T08:37:42;18.30;41.00
29243;DHT22;21110;48.036;15.780;2023-04-06T08:40:08;18.30;41.10
29243;DHT22;21110;48.036;15.780;2023-04-06T08:42:39;18.30;41.20
29243;DHT22;21110;48.036;15.780;2023-04-06T08:45:06;18.30;41.40
29243;DHT22;21110;48.036;15.780;2023-04-06T08:47:32;18.30;41.50
29243;DHT22;21110;48.036;15.780;2023-04-06T08:50:03;18.30;41.50
29243;DHT22;21110;48.036;15.780;2023-04-06T08:52:31;18.30;41.60
29243;DHT22;21110;48.036;15.780;2023-04-06T08:54:58;18.30;41.60
29243;DHT22;21110;48.036;15.780;2023-04-06T08:57:24;18.20;41.10
29243;DHT22;21110;48.036;15.780;2023-04-06T08:59:51;18.20;41.20
29243;DHT22;21110;48.036;15.780;2023-04-06T09:02:19;18.20;41.20
29243;DHT22;21110;48.036;15.780;2023-04-06T09:04:49;18.20;41.40
29243;DHT22;21110;48.036;15.780;2023-04-06T09:07:17;18.20;41.40
29243;DHT22;21110;48.036;15.780;2023-04-06T09:09:43;18.30;41.10
29243;DHT22;21110;48.036;15.780;2023-04-06T09:12:27;18.30;41.10
29243;DHT22;21110;48.036;15.780;2023-04-06T09:14:53;18.40;41.30
29243;DHT22;21110;48.036;15.780;2023-04-06T09:17:24;18.40;41.40
29243;DHT22;21110;48.036;15.780;2023-04-06T09:19:50;18.40;41.60
29243;DHT22;21110;48.036;15.780;2023-04-06T09:22:16;18.40;41.60
29243;DHT22;21110;48.036;15.780;2023-04-06T09:24:47;18.40;41.70
29243;DHT22;21110;48.036;15.780;2023-04-06T09:27:14;18.40;42.00
29243;DHT22;21110;48.036;15.780;2023-04-06T09:29:41;18.30;42.10
29243;DHT22;21110;48.036;15.780;2023-04-06T09:32:08;18.30;42.30
29243;DHT22;21110;48.036;15.780;2023-04-06T09:34:38;18.30;42.10
29243;DHT22;21110;48.036;15.780;2023-04-06T09:37:15;18.40;41.90
29243;DHT22;21110;48.036;15.780;2023-04-06T09:39:41;18.40;41.80
29243;DHT22;21110;48.036;15.780;2023-04-06T09:42:07;18.40;41.60
29243;DHT22;21110;48.036;15.780;2023-04-06T09:44:32;18.40;41.60
29243;DHT22;21110;48.036;15.780;2023-04-06T09:46:58;18.40;41.60
29243;DHT22;21110;48.036;15.780;2023-04-06T09:49:24;18.40;41.60
29243;DHT22;21110;48.036;15.780;2023-04-06T09:52:12;18.40;42.50
29243;DHT22;21110;48.036;15.780;2023-04-06T09:54:40;18.40;41.90
29243;DHT22;21110;48.036;15.780;2023-04-06T09:57:26;18.40;41.80
29243;DHT22;21110;48.036;15.780;2023-04-06T10:00:07;18.40;41.50
29243;DHT22;21110;48.036;15.780;2023-04-06T10:02:48;18.30;41.40
29243;DHT22;21110;48.036;15.780;2023-04-06T10:07:57;18.30;41.40
29243;DHT22;21110;48.036;15.780;2023-04-06T10:10:23;18.30;41.30
29243;DHT22;21110;48.036;15.780;2023-04-06T10:12:49;18.30;41.20
29243;DHT22;21110;48.036;15.780;2023-04-06T10:15:15;18.30;41.20
29243;DHT22;21110;48.036;15.780;2023-04-06T10:17:41;18.30;41.20
29243;DHT22;21110;48.036;15.780;2023-04-06T10:20:12;18.30;41.70
29243;DHT22;21110;48.036;15.780;2023-04-06T10:22:59;18.30;41.10
29243;DHT22;21110;48.036;15.780;2023-04-06T10:25:32;18.30;41.10
29243;DHT22;21110;48.036;15.780;2023-04-06T10:28:01;18.30;41.10
29243;DHT22;21110;48.036;15.780;2023-04-06T10:30:28;18.20;40.90
29243;DHT22;21110;48.036;15.780;2023-04-06T10:32:54;18.20;41.00
29243;DHT22;21110;48.036;15.780;2023-04-06T10:35:20;18.30;41.20
29243;DHT22;21110;48.036;15.780;2023-04-06T10:37:51;18.30;41.20
29243;DHT22;21110;48.036;15.780;2023-04-06T10:42:45;18.30;41.40
29243;DHT22;21110;48.036;15.780;2023-04-06T10:45:25;18.30;41.50
29243;DHT22;21110;48.036;15.780;2023-04-06T10:47:54;18.30;41.60
29243;DHT22;21110;48.036;15.780;2023-04-06T10:50:22;18.30;41.70
29243;DHT22;21110;48.036;15.780;2023-04-06T10:53:01;18.30;41.60
29243;DHT22;21110;48.036;15.780;2023-04-06T10:55:28;18.40;41.70
29243;DHT22;21110;48.036;15.780;2023-04-06T10:57:54;18.30;42.00
29243;DHT22;21110;48.036;15.780;2023-04-06T11:00:21;18.20;42.10
29243;DHT22;21110;48.036;15.780;2023-04-06T11:02:46;18.20;42.30
29243;DHT22;21110;48.036;15.780;2023-04-06T11:05:14;18.10;42.20
29243;DHT22;21110;48.036;15.780;2023-04-06T11:07:41;18.10;42.30
29243;DHT22;21110;48.036;15.780;2023-04-06T11:10:09;18.00;42.40
29243;DHT22;21110;48.036;15.780;2023-04-06T11:12:35;18.00;42.40
29243;DHT22;21110;48.036;15.780;2023-04-06T11:15:02;18.00;42.90
29243;DHT22;21110;48.036;15.780;2023-04-06T11:17:35;18.00;42.20
29243;DHT22;21110;48.036;15.780;2023-04-06T11:20:03;18.00;42.20
29243;DHT22;21110;48.036;15.780;2023-04-06T11:22:30;18.00;42.10
29243;DHT22;21110;48.036;15.780;2023-04-06T11:25:08;18.00;42.20
29243;DHT22;21110;48.036;15.780;2023-04-06T11:27:34;18.00;42.10
29243;DHT22;21110;48.036;15.780;2023-04-06T11:30:02;18.00;42.10
29243;DHT22;21110;48.036;15.780;2023-04-06T11:32:28;18.00;42.10
29243;DHT22;21110;48.036;15.780;2023-04-06T11:34:53;18.00;42.10
29243;DHT22;21110;48.036;15.780;2023-04-06T11:37:19;18.00;42.10
29243;DHT22;21110;48.036;15.780;2023-04-06T11:39:50;18.00;42.10
29243;DHT22;21110;48.036;15.780;2023-04-06T11:42:29;18.00;42.10
29243;DHT22;21110;48.036;15.780;2023-04-06T11:44:56;18.00;42.10
29243;DHT22;21110;48.036;15.780;2023-04-06T11:47:30;18.00;42.20
29243;DHT22;21110;48.036;15.780;2023-04-06T11:50:04;18.00;42.20
29243;DHT22;21110;48.036;15.780;2023-04-06T11:52:30;18.00;42.10
29243;DHT22;21110;48.036;15.780;2023-04-06T11:54:56;17.90;42.20
29243;DHT22;21110;48.036;15.780;2023-04-06T11:57:23;18.00;42.20
29243;DHT22;21110;48.036;15.780;2023-04-06T11:59:51;17.90;42.70
29243;DHT22;21110;48.036;15.780;2023-04-06T12:02:16;17.90;42.20
29243;DHT22;21110;48.036;15.780;2023-04-06T12:04:43;17.90;42.10
29243;DHT22;21110;48.036;15.780;2023-04-06T12:07:09;17.90;42.20
29243;DHT22;21110;48.036;15.780;2023-04-06T12:09:35;17.90;42.20
29243;DHT22;21110;48.036;15.780;2023-04-06T12:12:01;17.90;42.10
29243;DHT22;21110;48.036;15.780;2023-04-06T12:14:27;17.90;42.10
29243;DHT22;21110;48.036;15.780;2023-04-06T12:16:53;17.90;42.00
29243;DHT22;21110;48.036;15.780;2023-04-06T12:19:18;17.90;42.10
29243;DHT22;21110;48.036;15.780;2023-04-06T12:21:44;17.90;42.10
29243;DHT22;21110;48.036;15.780;2023-04-06T12:24:10;18.00;42.00
29243;DHT22;21110;48.036;15.780;2023-04-06T12:26:36;18.10;42.00
29243;DHT22;21110;48.036;15.780;2023-04-06T12:29:02;18.30;42.10
29243;DHT22;21110;48.036;15.780;2023-04-06T12:31:34;18.30;42.00
29243;DHT22;21110;48.036;15.780;2023-04-06T12:34:00;18.40;42.00
29243;DHT22;21110;48.036;15.780;2023-04-06T12:36:27;18.40;42.00
29243;DHT22;21110;48.036;15.780;2023-04-06T12:38:53;18.50;42.20
29243;DHT22;21110;48.036;15.780;2023-04-06T12:41:19;18.50;42.10
29243;DHT22;21110;48.036;15.780;2023-04-06T12:43:45;18.50;42.20
29243;DHT22;21110;48.036;15.780;2023-04-06T12:46:11;18.50;42.10
29243;DHT22;21110;48.036;15.780;2023-04-06T12:48:37;18.50;42.00
29243;DHT22;21110;48.036;15.780;2023-04-06T12:51:05;18.50;42.10
29243;DHT22;21110;48.036;15.780;2023-04-06T12:53:32;18.50;42.20
29243;DHT22;21110;48.036;15.780;2023-04-06T12:55:58;18.50;42.20
29243;DHT22;21110;48.036;15.780;2023-04-06T12:58:25;18.50;42.70
29243;DHT22;21110;48.036;15.780;2023-04-06T13:00:57;18.50;41.60
29243;DHT22;21110;48.036;15.780;2023-04-06T13:03:22;18.50;41.40
29243;DHT22;21110;48.036;15.780;2023-04-06T13:05:50;18.50;41.90
29243;DHT22;21110;48.036;15.780;2023-04-06T13:08:17;18.50;41.80
29243;DHT22;21110;48.036;15.780;2023-04-06T13:10:47;18.50;42.00
29243;DHT22;21110;48.036;15.780;2023-04-06T13:13:14;18.60;42.20
29243;DHT22;21110;48.036;15.780;2023-04-06T13:15:40;18.50;41.80
29243;DHT22;21110;48.036;15.780;2023-04-06T13:18:07;18.60;41.90
29243;DHT22;21110;48.036;15.780;2023-04-06T13:20:33;18.60;42.00
29243;DHT22;21110;48.036;15.780;2023-04-06T13:22:58;18.60;41.90
29243;DHT22;21110;48.036;15.780;2023-04-06T13:25:24;18.60;42.20
29243;DHT22;21110;48.036;15.780;2023-04-06T13:27:50;18.60;42.30
29243;DHT22;21110;48.036;15.780;2023-04-06T13:30:16;18.50;42.20
29243;DHT22;21110;48.036;15.780;2023-04-06T13:32:42;18.50;42.50
29243;DHT22;21110;48.036;15.780;2023-04-06T13:35:08;18.40;42.60
29243;DHT22;21110;48.036;15.780;2023-04-06T13:37:34;18.40;42.60
29243;DHT22;21110;48.036;15.780;2023-04-06T13:40:00;18.30;42.50
29243;DHT22;21110;48.036;15.780;2023-04-06T13:42:27;18.30;42.50
29243;DHT22;21110;48.036;15.780;2023-04-06T13:44:53;18.30;42.40
29243;DHT22;21110;48.036;15.780;2023-04-06T13:47:19;18.20;42.40
29243;DHT22;21110;48.036;15.780;2023-04-06T13:49:46;18.20;42.30
29243;DHT22;21110;48.036;15.780;2023-04-06T13:52:12;18.20;42.30
29243;DHT22;21110;48.036;15.780;2023-04-06T13:54:38;18.20;42.30
29243;DHT22;21110;48.036;15.780;2023-04-06T13:57:04;18.20;42.20
29243;DHT22;21110;48.036;15.780;2023-04-06T13:59:34;18.10;42.10
29243;DHT22;21110;48.036;15.780;2023-04-06T14:02:04;18.10;42.00
29243;DHT22;21110;48.036;15.780;2023-04-06T14:04:30;18.10;42.00
29243;DHT22;21110;48.036;15.780;2023-04-06T14:06:57;18.10;41.90
29243;DHT22;21110;48.036;15.780;2023-04-06T14:09:23;18.10;42.00
29243;DHT22;21110;48.036;15.780;2023-04-06T14:11:49;18.10;42.00
29243;DHT22;21110;48.036;15.780;2023-04-06T14:14:15;18.10;41.90
29243;DHT22;21110;48.036;15.780;2023-04-06T14:16:41;18.10;42.00
29243;DHT22;21110;48.036;15.780;2023-04-06T14:19:11;18.10;41.90
29243;DHT22;21110;48.036;15.780;2023-04-06T14:21:40;18.10;42.00
29243;DHT22;21110;48.036;15.780;2023-04-06T14:24:06;18.10;41.90
29243;DHT22;21110;48.036;15.780;2023-04-06T14:26:32;18.00;41.90
29243;DHT22;21110;48.036;15.780;2023-04-06T14:29:01;18.10;41.90
29243;DHT22;21110;48.036;15.780;2023-04-06T14:31:27;18.10;41.90
29243;DHT22;21110;48.036;15.780;2023-04-06T14:33:53;18.00;41.90
29243;DHT22;21110;48.036;15.780;2023-04-06T14:36:19;18.00;41.80
29243;DHT22;21110;48.036;15.780;2023-04-06T14:38:45;18.00;41.90
29243;DHT22;21110;48.036;15.780;2023-04-06T14:41:19;18.00;41.90
29243;DHT22;21110;48.036;15.780;2023-04-06T14:43:46;18.00;41.80
29243;DHT22;21110;48.036;15.780;2023-04-06T14:46:12;18.00;41.80
29243;DHT22;21110;48.036;15.780;2023-04-06T14:48:38;18.00;41.80
29243;DHT22;21110;48.036;15.780;2023-04-06T14:51:03;18.00;41.80
29243;DHT22;21110;48.036;15.780;2023-04-06T14:53:29;18.00;41.80
29243;DHT22;21110;48.036;15.780;2023-04-06T14:55:55;18.00;41.70
29243;DHT22;21110;48.036;15.780;2023-04-06T14:58:22;18.00;41.80
29243;DHT22;21110;48.036;15.780;2023-04-06T15:00:48;18.00;42.30
29243;DHT22;21110;48.036;15.780;2023-04-06T15:03:14;18.00;41.80
29243;DHT22;21110;48.036;15.780;2023-04-06T15:05:40;18.00;41.80
29243;DHT22;21110;48.036;15.780;2023-04-06T15:08:06;17.90;41.70
29243;DHT22;21110;48.036;15.780;2023-04-06T15:10:35;17.90;41.70
29243;DHT22;21110;48.036;15.780;2023-04-06T15:13:01;17.90;41.70
29243;DHT22;21110;48.036;15.780;2023-04-06T15:15:26;17.90;41.70
29243;DHT22;21110;48.036;15.780;2023-04-06T15:17:53;17.90;41.70